Time;durP1;ratioP1;P1;durP2;ratioP2;P2;SDS_P1;SDS_P2;PMS_P1;PMS_P2;Temp;Humidity;BMP_temperature;BMP_pressure;BME280_temperature;BME280_humidity;BME280_pressure;Samples;Min_cycle;Max_cycle;Signal;HPM_P1;HPM_P2
2023/06/15 00:01:21;;;;;;;8.50;6.57;;;;;;;16.95;100.00;64749.03;5072554;28;20192;-59
2023/06/15 00:03:47;;;;;;;9.07;6.55;;;;;;;16.95;100.00;64747.00;5072226;28;20278;-58
2023/06/15 00:06:12;;;;;;;9.02;6.45;;;;;;;17.00;100.00;64751.97;5072535;28;20209;-60
2023/06/15 00:08:38;;;;;;;8.35;5.90;;;;;;;16.79;100.00;64732.50;5072604;28;20762;-61
2023/06/15 00:11:03;;;;;;;7.15;6.43;;;;;;;16.69;100.00;64721.47;5072484;28;20258;-58
2023/06/15 00:13:29;;;;;;;7.93;5.93;;;;;;;16.68;100.00;64719.84;5072339;28;20217;-58
2023/06/15 00:15:55;;;;;;;7.47;6.70;;;;;;;16.99;100.00;64750.88;5072134;28;20734;-58
2023/06/15 00:18:20;;;;;;;8.30;6.22;;;;;;;16.99;100.00;64753.44;5054191;28;20220;-59
2023/06/15 00:20:45;;;;;;;8.10;6.72;;;;;;;16.84;100.00;64736.91;5072165;28;20279;-57
2023/06/15 00:23:11;;;;;;;6.18;5.53;;;;;;;16.82;100.00;64735.25;5072279;28;20209;-58
2023/06/15 00:25:37;;;;;;;7.55;6.28;;;;;;;16.83;100.00;64733.25;5072202;28;20227;-58
2023/06/15 00:28:03;;;;;;;6.85;6.00;;;;;;;16.89;100.00;64739.88;5054439;28;20216;-59
2023/06/15 00:30:29;;;;;;;8.20;6.07;;;;;;;16.83;100.00;64736.34;5054300;28;20207;-58
2023/06/15 00:32:54;;;;;;;7.05;5.47;;;;;;;16.65;100.00;64716.53;5072165;28;20200;-57
2023/06/15 00:35:21;;;;;;;6.43;5.82;;;;;;;16.62;100.00;64715.78;5071885;28;20200;-58
2023/06/15 00:37:46;;;;;;;9.05;6.82;;;;;;;16.56;100.00;64707.16;5071879;28;20678;-58
2023/06/15 00:40:12;;;;;;;7.65;6.80;;;;;;;16.61;100.00;64712.66;5071819;28;20227;-58
2023/06/15 00:42:37;;;;;;;7.15;5.97;;;;;;;16.67;100.00;64719.28;5071813;28;20717;-59
2023/06/15 00:45:04;;;;;;;10.18;6.75;;;;;;;16.86;100.00;64737.13;5071968;28;20201;-58
2023/06/15 00:47:30;;;;;;;6.28;5.68;;;;;;;16.76;100.00;64731.75;5071850;28;20201;-60
2023/06/15 00:49:57;;;;;;;6.95;6.05;;;;;;;16.74;100.00;64726.44;5071217;28;20302;-58
2023/06/15 00:52:23;;;;;;;7.97;6.32;;;;;;;16.71;100.00;64721.13;5071573;28;20216;-58
2023/06/15 00:54:50;;;;;;;9.80;6.50;;;;;;;16.68;100.00;64722.38;5053599;28;20228;-58
2023/06/15 00:57:17;;;;;;;9.75;7.25;;;;;;;16.65;100.00;64716.53;5071628;28;20220;-58
2023/06/15 00:59:42;;;;;;;7.57;6.82;;;;;;;16.55;100.00;64708.63;5071802;28;20221;-58
2023/06/15 01:02:12;;;;;;;7.57;6.63;;;;;;;16.63;100.00;64717.41;5071780;28;20200;-57
2023/06/15 01:04:38;;;;;;;9.07;6.82;;;;;;;16.67;100.00;64719.28;5071910;28;20213;-58
2023/06/15 01:07:04;;;;;;;8.07;7.03;;;;;;;16.74;100.00;64729.53;5071461;28;20208;-58
2023/06/15 01:09:33;;;;;;;8.70;7.50;;;;;;;16.84;100.00;64737.44;5071750;28;20725;-58
2023/06/15 01:12:01;;;;;;;9.43;7.65;;;;;;;16.85;100.00;64738.53;5071568;28;20220;-60
2023/06/15 01:14:29;;;;;;;8.98;7.20;;;;;;;16.75;100.00;64727.53;5071337;28;20204;-61
2023/06/15 01:17:05;;;;;;;8.32;7.05;;;;;;;16.75;100.00;64728.09;5071394;28;20223;-60
2023/06/15 01:20:06;;;;;;;8.02;7.15;;;;;;;16.78;100.00;64731.41;5071237;28;20215;-61
2023/06/15 01:23:07;;;;;;;13.35;8.80;;;;;;;16.66;100.00;64718.16;5071199;28;20670;-60
2023/06/15 01:25:45;;;;;;;10.45;7.88;;;;;;;16.73;100.00;64727.88;5039904;28;20250;-61
2023/06/15 01:28:13;;;;;;;8.20;7.40;;;;;;;16.84;100.00;64737.44;5071213;28;20300;-58
2023/06/15 01:30:46;;;;;;;8.80;6.68;;;;;;;16.75;100.00;64730.63;5071279;28;20224;-58
2023/06/15 01:33:12;;;;;;;10.70;6.63;;;;;;;16.81;100.00;64733.59;5071347;28;20204;-57
2023/06/15 01:35:38;;;;;;;8.40;7.25;;;;;;;16.78;100.00;64733.94;5071075;28;20203;-58
2023/06/15 01:38:04;;;;;;;10.20;7.50;;;;;;;16.67;100.00;64721.28;5071236;28;20236;-58
2023/06/15 01:40:34;;;;;;;8.23;6.38;;;;;;;16.65;100.00;64719.63;5071039;28;20237;-60
2023/06/15 01:43:00;;;;;;;6.85;6.18;;;;;;;16.72;100.00;64722.22;5071084;28;20193;-60
2023/06/15 01:45:28;;;;;;;10.80;6.70;;;;;;;16.83;100.00;64733.25;5071054;28;20748;-62
2023/06/15 01:47:55;;;;;;;8.88;6.93;;;;;;;16.83;100.00;64735.81;5071009;28;20193;-61
2023/06/15 01:50:28;;;;;;;7.63;6.55;;;;;;;16.79;100.00;64735.03;5071261;28;20208;-58
2023/06/15 01:52:54;;;;;;;8.45;7.30;;;;;;;16.77;100.00;64732.28;5071086;28;20292;-60
2023/06/15 01:55:20;;;;;;;9.40;7.35;;;;;;;16.77;100.00;64732.84;5070950;28;20207;-61
2023/06/15 01:57:46;;;;;;;9.15;7.32;;;;;;;16.67;100.00;64719.28;5070720;28;20307;-60
2023/06/15 02:00:12;;;;;;;9.05;6.72;;;;;;;16.75;100.00;64728.09;5070686;28;20212;-61
2023/06/15 02:02:37;;;;;;;7.35;6.38;;;;;;;16.88;100.00;64741.31;5070711;28;20205;-57
2023/06/15 02:05:06;;;;;;;7.22;6.45;;;;;;;16.90;100.00;64744.06;5070688;28;20217;-58
2023/06/15 02:07:31;;;;;;;9.65;8.40;;;;;;;16.93;100.00;64749.91;5073642;28;20249;-60
2023/06/15 02:09:57;;;;;;;9.60;7.97;;;;;;;17.02;100.00;64759.28;5074229;28;20189;-61
2023/06/15 02:12:24;;;;;;;9.10;7.60;;;;;;;17.02;100.00;64759.28;5074392;28;20287;-60
2023/06/15 02:14:50;;;;;;;8.63;7.55;;;;;;;16.87;100.00;64738.19;5074591;28;20208;-56
2023/06/15 02:17:17;;;;;;;8.40;7.60;;;;;;;16.85;100.00;64740.56;5074061;28;20728;-58
2023/06/15 02:19:46;;;;;;;9.35;7.88;;;;;;;16.89;100.00;64739.88;5074301;28;20298;-57
2023/06/15 02:22:12;;;;;;;11.48;8.50;;;;;;;16.84;100.00;64736.91;5074087;28;20200;-58
2023/06/15 02:24:37;;;;;;;10.88;8.45;;;;;;;16.82;100.00;64732.72;5056193;28;20216;-58
2023/06/15 02:27:03;;;;;;;10.15;8.02;;;;;;;16.88;100.00;64741.31;5074030;28;20196;-57
2023/06/15 02:29:28;;;;;;;10.05;8.05;;;;;;;17.15;100.00;64773.59;5073922;28;20270;-61
2023/06/15 02:31:54;;;;;;;9.52;8.52;;;;;;;17.07;100.00;64759.69;5073962;28;20203;-58
2023/06/15 02:34:20;;;;;;;9.88;8.80;;;;;;;17.00;100.00;64755.06;5073848;28;20204;-59
2023/06/15 02:36:46;;;;;;;9.20;7.97;;;;;;;17.17;100.00;64773.78;5073843;28;20616;-60
2023/06/15 02:39:12;;;;;;;9.75;8.75;;;;;;;17.16;100.00;64772.16;5073814;28;20213;-58
2023/06/15 02:41:38;;;;;;;9.98;8.75;;;;;;;17.05;100.00;64760.03;5074096;28;20205;-60
2023/06/15 02:44:04;;;;;;;12.68;8.48;;;;;;;16.93;100.00;64747.34;5074001;28;20213;-60
2023/06/15 02:46:30;;;;;;;11.40;9.07;;;;;;;16.90;100.00;64743.50;5073683;28;20303;-60
2023/06/15 02:48:56;;;;;;;8.98;8.07;;;;;;;16.87;100.00;64740.22;5073763;28;20213;-59
2023/06/15 02:51:23;;;;;;;11.50;7.85;;;;;;;16.85;100.00;64735.47;5055656;28;20200;-58
2023/06/15 02:53:49;;;;;;;8.35;7.35;;;;;;;16.92;100.00;64745.72;5055587;28;20240;-58
2023/06/15 02:56:18;;;;;;;8.75;7.65;;;;;;;17.15;100.00;64768.50;5073466;28;20698;-58
2023/06/15 02:58:56;;;;;;;9.88;7.50;;;;;;;17.13;100.00;64771.94;5073827;28;20232;-58
2023/06/15 03:01:23;;;;;;;9.20;8.07;;;;;;;17.03;100.00;64757.84;5073607;28;20193;-58
2023/06/15 03:03:49;;;;;;;8.45;7.60;;;;;;;17.01;100.00;64758.72;5055598;28;20248;-57
2023/06/15 03:06:15;;;;;;;8.10;6.13;;;;;;;17.06;100.00;64764.22;5073651;28;20189;-58
2023/06/15 03:08:42;;;;;;;6.38;5.72;;;;;;;16.97;100.00;64751.22;5073622;28;20220;-58
2023/06/15 03:11:08;;;;;;;6.15;5.55;;;;;;;16.98;100.00;64752.31;5073452;28;20189;-57
2023/06/15 03:13:35;;;;;;;6.78;6.10;;;;;;;17.01;100.00;64755.63;5073316;28;20832;-58
2023/06/15 03:16:01;;;;;;;6.70;6.05;;;;;;;17.15;100.00;64771.59;5073483;28;20208;-58
2023/06/15 03:18:30;;;;;;;7.25;5.55;;;;;;;17.11;100.00;64767.19;5072118;28;20292;-59
2023/06/15 03:20:57;;;;;;;7.57;6.25;;;;;;;16.99;100.00;64755.97;5073189;28;20670;-58
2023/06/15 03:23:24;;;;;;;6.53;5.75;;;;;;;16.96;100.00;64750.13;5073305;28;20236;-58
2023/06/15 03:25:51;;;;;;;5.88;5.13;;;;;;;16.99;100.00;64755.97;5073057;28;20196;-58
2023/06/15 03:28:18;;;;;;;8.23;5.28;;;;;;;16.91;100.00;64745.16;5073059;28;20304;-57
2023/06/15 03:30:46;;;;;;;8.73;5.85;;;;;;;17.04;100.00;64762.03;5073065;28;20310;-58
2023/06/15 03:33:13;;;;;;;6.93;5.43;;;;;;;17.17;100.00;64773.78;5073115;28;20216;-58
2023/06/15 03:35:39;;;;;;;7.75;5.25;;;;;;;17.08;100.00;64763.34;5072890;28;20250;-57
2023/06/15 03:38:05;;;;;;;5.43;4.47;;;;;;;17.10;100.00;64768.09;5072917;28;20205;-58
2023/06/15 03:40:36;;;;;;;6.55;4.93;;;;;;;16.93;100.00;64747.34;5072775;28;20208;-58
2023/06/15 03:43:02;;;;;;;5.22;4.72;;;;;;;17.06;100.00;64761.13;5072953;28;20266;-58
2023/06/15 03:45:27;;;;;;;5.72;4.88;;;;;;;17.20;100.00;64772.00;5072714;28;20222;-57
2023/06/15 03:47:53;;;;;;;7.22;4.55;;;;;;;17.42;100.00;64801.34;5072903;28;20201;-58
2023/06/15 03:50:18;;;;;;;6.32;5.22;;;;;;;17.51;100.00;64810.75;5072780;28;20193;-59
2023/06/15 03:52:44;;;;;;;5.47;4.72;;;;;;;17.55;100.00;64810.06;5072825;28;20193;-58
2023/06/15 03:55:12;;;;;;;6.05;5.45;;;;;;;17.37;100.00;64795.81;5072495;28;20641;-58
2023/06/15 03:57:38;;;;;;;9.75;5.50;;;;;;;17.15;100.00;64769.03;5072604;28;20714;-57
2023/06/15 04:00:07;;;;;;;6.47;5.10;;;;;;;17.24;100.00;64784.06;5072331;28;20300;-57
2023/06/15 04:02:33;;;;;;;6.55;5.70;;;;;;;17.17;100.00;64770.72;5072516;28;20169;-58
2023/06/15 04:05:00;;;;;;;9.60;5.97;;;;;;;17.41;100.00;64799.69;5072461;28;20605;-58
2023/06/15 04:07:28;;;;;;;8.35;6.43;;;;;;;17.47;100.00;64806.31;5072657;28;20204;-57
2023/06/15 04:09:53;;;;;;;7.68;6.70;;;;;;;17.56;100.00;64814.25;5072374;28;20597;-57
2023/06/15 04:12:19;;;;;;;7.22;6.53;;;;;;;17.66;100.00;64827.25;5072359;28;20201;-63
2023/06/15 04:14:44;;;;;;;7.45;6.43;;;;;;;17.83;100.00;64845.44;5072422;28;20209;-59
2023/06/15 04:17:10;;;;;;;8.13;7.20;;;;;;;17.65;100.00;64826.16;5072225;28;20721;-58
2023/06/15 04:19:35;;;;;;;7.72;6.90;;;;;;;17.80;100.00;64840.16;5072432;28;20726;-59
2023/06/15 04:22:01;;;;;;;14.50;8.10;;;;;;;17.83;100.00;64843.47;5072195;28;20204;-59
2023/06/15 04:24:26;;;;;;;8.68;7.45;;;;;;;17.79;100.00;64839.06;5072034;28;20709;-58
2023/06/15 04:26:52;;;;;;;9.93;8.25;;;;;;;17.95;100.00;64856.13;5072000;28;20227;-58
2023/06/15 04:29:18;;;;;;;12.65;7.57;;;;;;;18.18;100.00;64886.59;5071819;28;20221;-59
2023/06/15 04:31:44;;;;;;;13.07;8.07;;;;;;;18.02;100.00;64866.94;5071903;28;20746;-59
2023/06/15 04:34:11;;;;;;;8.35;7.55;;;;;;;17.91;100.00;64854.81;5072022;28;20291;-58
2023/06/15 04:36:39;;;;;;;11.05;8.15;;;;;;;18.02;100.00;64863.84;5072078;28;20205;-59
2023/06/15 04:39:04;;;;;;;8.50;7.38;;;;;;;18.28;100.00;64892.53;5070562;28;20217;-60
2023/06/15 04:41:31;;;;;;;9.25;7.75;;;;;;;18.42;100.00;64905.94;5070813;28;20197;-58
2023/06/15 04:43:56;;;;;;;9.25;7.97;;;;;;;18.42;100.00;64908.50;5071693;28;20205;-60
2023/06/15 04:46:23;;;;;;;9.32;8.27;;;;;;;18.28;100.00;64892.53;5071847;28;20184;-58
2023/06/15 04:48:49;;;;;;;9.27;7.93;;;;;;;18.18;100.00;64882.03;5072123;28;20575;-59
2023/06/15 04:51:15;;;;;;;11.80;7.85;;;;;;;18.24;100.00;64888.66;5071878;28;20187;-59
2023/06/15 04:53:45;;;;;;;9.35;6.50;;;;;;;18.55;100.00;64924.31;5071564;28;20383;-65
2023/06/15 04:56:11;;;;;;;8.88;7.13;;;;;;;18.83;100.00;64952.66;5071570;28;20291;-60
2023/06/15 04:58:36;;;;;;;10.25;6.28;;;;;;;19.05;100.00;64977.47;5071721;28;20212;-60
2023/06/15 05:01:02;;;;;;;10.07;7.90;;;;;;;19.14;100.00;64984.88;5071736;28;20179;-60
2023/06/15 05:03:27;;;;;;;8.27;6.03;;;;;;;19.36;100.00;65011.16;5071582;28;20209;-58
2023/06/15 05:05:53;;;;;;;10.20;6.70;;;;;;;19.37;100.00;65012.28;5071322;28;20192;-60
2023/06/15 05:08:18;;;;;;;6.93;6.22;;;;;;;19.39;100.00;65014.50;5071251;28;20265;-59
2023/06/15 05:10:44;;;;;;;6.80;5.85;;;;;;;19.45;100.00;65023.69;5070984;28;20196;-58
2023/06/15 05:13:10;;;;;;;8.80;5.68;;;;;;;19.46;100.00;65022.22;5071009;28;20236;-59
2023/06/15 05:15:35;;;;;;;6.13;5.53;;;;;;;19.68;100.00;65049.06;5071112;28;20201;-59
2023/06/15 05:18:00;;;;;;;13.50;6.63;;;;;;;19.66;100.00;65041.72;5070909;28;20220;-59
2023/06/15 05:20:26;;;;;;;9.13;6.50;;;;;;;19.40;100.00;65015.03;5071199;28;20204;-59
2023/06/15 05:22:52;;;;;;;8.70;6.40;;;;;;;19.18;100.00;64991.84;5070879;28;20632;-59
2023/06/15 05:25:19;;;;;;;10.05;6.53;;;;;;;18.93;100.00;64964.25;5071209;28;20200;-59
2023/06/15 05:27:44;;;;;;;8.05;6.50;;;;;;;18.77;100.00;64946.03;5071074;28;20683;-60
2023/06/15 05:30:11;;;;;;;10.07;6.85;;;;;;;18.76;100.00;64944.94;5070783;28;20268;-59
2023/06/15 05:32:38;;;;;;;8.90;6.90;;;;;;;18.49;100.00;64915.16;5070706;28;20189;-58
2023/06/15 05:35:08;;;;;;;8.00;7.20;;;;;;;18.39;100.00;64904.66;5071103;28;20212;-59
2023/06/15 05:37:35;;;;;;;7.55;6.85;;;;;;;18.42;100.00;64908.50;5070854;28;20234;-59
2023/06/15 05:40:01;;;;;;;8.15;6.95;;;;;;;18.42;100.00;64908.50;5070535;28;20212;-58
2023/06/15 05:42:27;;;;;;;10.00;7.30;;;;;;;18.51;100.00;64917.34;5070461;28;20285;-58
2023/06/15 05:44:59;;;;;;;11.13;7.57;;;;;;;18.59;100.00;64931.84;5070378;28;20295;-60
2023/06/15 05:47:25;;;;;;;9.63;7.25;;;;;;;18.62;100.00;64932.03;5068765;28;20641;-61
2023/06/15 05:49:50;;;;;;;11.40;7.53;;;;;;;18.59;100.00;64929.28;5068771;28;20213;-61
2023/06/15 05:52:17;;;;;;;10.23;7.40;;;;;;;18.59;100.00;64928.72;5070804;28;20204;-58
2023/06/15 05:54:44;;;;;;;9.23;7.57;;;;;;;18.68;100.00;64939.22;5069903;28;20321;-58
2023/06/15 05:57:10;;;;;;;10.75;8.85;;;;;;;18.71;100.00;64939.97;5069767;28;20217;-57
2023/06/15 05:59:36;;;;;;;12.60;8.13;;;;;;;18.77;100.00;64946.03;5070839;28;20213;-58
2023/06/15 06:02:02;;;;;;;13.05;10.07;;;;;;;18.65;100.00;64933.34;5070585;28;20323;-59
2023/06/15 06:04:27;;;;;;;12.15;8.43;;;;;;;18.86;100.00;64959.09;5071113;28;20205;-58
2023/06/15 06:06:53;;;;;;;9.90;8.00;;;;;;;19.13;100.00;64985.75;5070470;28;20253;-59
2023/06/15 06:09:18;;;;;;;9.63;8.30;;;;;;;19.35;100.00;65012.06;5070490;28;20686;-59
2023/06/15 06:11:47;;;;;;;11.30;8.90;;;;;;;19.36;100.00;65013.72;5070488;28;20250;-58
2023/06/15 06:14:13;;;;;;;11.40;9.07;;;;;;;19.33;100.00;65007.88;5070301;28;20217;-59
2023/06/15 06:16:39;;;;;;;14.13;8.75;;;;;;;19.17;100.00;64993.28;5070351;28;20257;-59
2023/06/15 06:19:04;;;;;;;13.60;8.60;;;;;;;19.23;100.00;64997.34;5070579;28;20300;-60
2023/06/15 06:21:31;;;;;;;16.15;9.27;;;;;;;19.16;100.00;64991.63;5070322;28;20200;-60
2023/06/15 06:23:56;;;;;;;13.52;9.45;;;;;;;19.22;100.00;64998.81;5070592;28;20576;-60
2023/06/15 06:26:22;;;;;;;13.05;9.55;;;;;;;19.37;100.00;65014.28;5070258;28;20201;-59
2023/06/15 06:28:48;;;;;;;11.73;10.20;;;;;;;19.46;100.00;65024.78;5070447;28;20679;-60
2023/06/15 06:31:13;;;;;;;16.48;10.82;;;;;;;19.50;100.00;65029.19;5070317;28;20205;-59
2023/06/15 06:33:40;;;;;;;14.20;9.38;;;;;;;19.41;100.00;65016.16;5070590;28;20221;-59
2023/06/15 06:36:08;;;;;;;11.15;9.75;;;;;;;19.32;100.00;65006.19;5070348;28;20333;-58
2023/06/15 06:38:34;;;;;;;13.05;9.95;;;;;;;19.40;100.00;65015.59;5070255;28;20691;-59
2023/06/15 06:41:00;;;;;;;18.75;11.63;;;;;;;19.32;100.00;65006.72;5070356;28;20300;-58
2023/06/15 06:43:25;;;;;;;15.00;10.70;;;;;;;19.44;100.00;65017.44;5070460;28;20738;-58
2023/06/15 06:45:51;;;;;;;14.10;10.02;;;;;;;19.65;100.00;65043.19;5070232;28;20275;-58
2023/06/15 06:48:17;;;;;;;13.63;10.00;;;;;;;19.81;100.00;65060.31;5070102;28;20629;-59
2023/06/15 06:50:42;;;;;;;11.07;9.80;;;;;;;19.81;100.00;65058.31;5069975;28;20695;-58
2023/06/15 06:53:08;;;;;;;15.50;12.57;;;;;;;19.66;100.00;65044.28;5072399;28;20205;-59
2023/06/15 06:55:34;;;;;;;16.63;11.57;;;;;;;19.77;100.00;65056.44;5073353;28;20291;-59
2023/06/15 06:58:00;;;;;;;14.48;10.93;;;;;;;19.88;100.00;65071.16;5073011;28;20213;-58
2023/06/15 07:00:27;;;;;;;16.08;11.57;;;;;;;19.90;100.00;65070.78;5073215;28;20212;-59
2023/06/15 07:02:53;;;;;;;11.85;10.07;;;;;;;20.03;100.00;65085.16;5073062;28;20242;-59
2023/06/15 07:05:18;;;;;;;24.42;16.25;;;;;;;20.06;100.00;65088.47;5073422;28;20205;-60
2023/06/15 07:07:44;;;;;;;19.33;14.25;;;;;;;20.16;100.00;65098.97;5073585;28;20659;-58
2023/06/15 07:10:10;;;;;;;14.85;11.93;;;;;;;20.33;100.00;65117.78;5073227;28;20208;-60
2023/06/15 07:12:35;;;;;;;17.67;12.32;;;;;;;20.49;100.00;65134.91;5072971;28;20270;-59
2023/06/15 07:15:01;;;;;;;15.60;12.43;;;;;;;20.54;100.00;65140.44;5072869;28;20749;-58
2023/06/15 07:17:26;;;;;;;15.77;13.07;;;;;;;20.63;100.00;65152.94;5073037;28;20242;-59
2023/06/15 07:19:52;;;;;;;16.48;10.90;;;;;;;20.66;100.00;65158.81;5073204;28;20769;-59
2023/06/15 07:22:17;;;;;;;15.98;12.02;;;;;;;20.49;100.00;65134.91;5073244;28;20193;-59
2023/06/15 07:24:43;;;;;;;14.35;11.10;;;;;;;20.60;100.00;65149.63;5072969;28;20217;-62
2023/06/15 07:27:08;;;;;;;17.25;11.52;;;;;;;20.65;100.00;65152.56;5072957;28;20230;-60
2023/06/15 07:29:34;;;;;;;11.98;10.73;;;;;;;20.65;100.00;65153.13;5073405;28;20562;-59
2023/06/15 07:31:59;;;;;;;17.08;11.95;;;;;;;20.64;100.00;65152.03;5073027;28;20588;-59
2023/06/15 07:34:26;;;;;;;14.05;11.50;;;;;;;20.51;100.00;65139.66;5073107;28;20212;-59
2023/06/15 07:36:51;;;;;;;13.18;11.07;;;;;;;20.59;100.00;65148.50;5072723;28;20216;-57
2023/06/15 07:39:17;;;;;;;15.65;12.45;;;;;;;20.62;100.00;65149.28;5073288;28;20207;-59
2023/06/15 07:41:42;;;;;;;15.27;11.63;;;;;;;20.54;100.00;65140.44;5072849;28;20214;-58
2023/06/15 07:44:12;;;;;;;16.27;11.77;;;;;;;20.33;100.00;65117.78;5072728;28;20212;-61
2023/06/15 07:46:38;;;;;;;14.25;11.70;;;;;;;20.30;100.00;65114.44;5072766;28;20201;-60
2023/06/15 07:49:04;;;;;;;18.50;12.20;;;;;;;20.15;100.00;65097.88;5073251;28;20197;-57
2023/06/15 07:51:29;;;;;;;13.50;12.07;;;;;;;20.26;100.00;65107.47;5072757;28;20205;-57
2023/06/15 07:53:54;;;;;;;14.70;11.68;;;;;;;20.20;100.00;65105.41;5073029;28;20204;-57
2023/06/15 07:56:20;;;;;;;13.75;12.13;;;;;;;20.09;100.00;65091.78;5072643;28;20216;-57
2023/06/15 07:58:45;;;;;;;16.67;12.40;;;;;;;20.08;100.00;65088.13;5072458;28;20629;-59
2023/06/15 08:01:10;;;;;;;18.30;12.57;;;;;;;20.29;100.00;65112.78;5072471;28;20204;-58
2023/06/15 08:03:36;;;;;;;20.27;12.77;;;;;;;20.39;100.00;65123.84;5071841;28;20209;-58
2023/06/15 08:06:01;;;;;;;13.93;12.38;;;;;;;20.45;100.00;65131.03;5072712;28;20215;-62
2023/06/15 08:08:27;;;;;;;12.50;10.75;;;;;;;20.45;100.00;65131.03;5072554;28;20295;-57
2023/06/15 08:10:52;;;;;;;13.32;11.52;;;;;;;20.54;100.00;65140.97;5072479;28;20689;-59
2023/06/15 08:13:18;;;;;;;12.52;11.23;;;;;;;20.64;100.00;65149.47;5072564;28;20232;-58
2023/06/15 08:15:44;;;;;;;15.45;12.30;;;;;;;20.76;100.00;65164.75;5072272;28;20258;-57
2023/06/15 08:18:10;;;;;;;14.43;11.10;;;;;;;20.79;100.00;65165.47;5072136;28;20208;-58
2023/06/15 08:20:35;;;;;;;12.05;10.60;;;;;;;20.91;100.00;65181.88;5072258;28;20200;-58
2023/06/15 08:23:01;;;;;;;15.57;11.23;;;;;;;20.92;100.00;65182.44;5072160;28;20204;-60
2023/06/15 08:25:26;;;;;;;12.25;9.77;;;;;;;20.97;100.00;65187.94;5072022;28;20193;-59
2023/06/15 08:27:51;;;;;;;12.73;10.40;;;;;;;20.96;100.00;65184.28;5071929;28;20205;-58
2023/06/15 08:30:17;;;;;;;11.50;9.40;;;;;;;20.93;100.00;65183.53;5072313;28;20184;-58
2023/06/15 08:32:43;;;;;;;16.38;10.07;;;;;;;20.95;100.00;65183.16;5072086;28;20209;-58
2023/06/15 08:35:08;;;;;;;9.30;8.40;;;;;;;20.98;100.00;65191.63;5071763;28;20300;-58
2023/06/15 08:37:35;;;;;;;14.68;9.77;;;;;;;21.03;100.00;65188.94;5071967;28;20212;-58
2023/06/15 08:40:05;;;;;;;14.65;10.80;;;;;;;21.11;100.00;65202.91;5053918;28;20230;-58
2023/06/15 08:42:33;;;;;;;16.27;11.57;;;;;;;21.15;100.00;65209.91;5071880;28;20196;-61
2023/06/15 08:44:59;;;;;;;15.60;10.98;;;;;;;21.16;100.00;65208.97;5071588;28;20204;-61
2023/06/15 08:47:26;;;;;;;12.60;9.45;;;;;;;21.25;100.00;65218.38;5071663;28;20288;-59
2023/06/15 08:49:52;;;;;;;10.70;9.50;;;;;;;21.24;100.00;65217.28;5071539;28;20687;-59
2023/06/15 08:52:23;;;;;;;9.73;8.23;;;;;;;21.46;100.00;65239.59;5071749;28;20208;-59
2023/06/15 08:54:52;;;;;;;10.68;8.90;;;;;;;21.53;100.00;65249.88;5053621;28;20216;-58
2023/06/15 08:57:17;;;;;;;11.57;9.00;;;;;;;21.70;100.00;65268.16;5071507;28;20690;-59
2023/06/15 08:59:43;;;;;;;10.90;9.80;;;;;;;21.79;100.00;65278.13;5072096;28;20247;-58
2023/06/15 09:02:18;;;;;;;10.60;9.27;;;;;;;21.95;100.00;65298.41;5071762;28;20643;-59
2023/06/15 09:04:44;;;;;;;10.93;9.80;;;;;;;22.00;100.00;65303.41;5071743;28;20633;-59
2023/06/15 09:07:11;;;;;;;10.18;9.18;;;;;;;22.01;100.00;65302.47;5071351;28;20250;-59
2023/06/15 09:09:36;;;;;;;9.95;8.50;;;;;;;22.04;100.00;65305.25;5071448;28;20213;-58
2023/06/15 09:12:05;;;;;;;11.18;9.98;;;;;;;21.97;100.00;65297.50;5071555;28;20685;-59
2023/06/15 09:14:40;;;;;;;11.48;10.05;;;;;;;21.88;100.00;65287.53;5071068;28;20630;-58
2023/06/15 09:17:12;;;;;;;11.95;10.10;;;;;;;21.80;100.00;65279.22;5071211;28;20729;-59
2023/06/15 09:19:37;;;;;;;13.75;9.70;;;;;;;21.74;100.00;65270.56;5071710;28;20212;-58
2023/06/15 09:22:07;;;;;;;13.23;11.52;;;;;;;21.80;100.00;65279.22;5053397;28;20192;-57
2023/06/15 09:24:39;;;;;;;11.40;10.20;;;;;;;21.72;100.00;65270.38;5070991;28;20697;-58
2023/06/15 09:27:15;;;;;;;12.35;11.15;;;;;;;21.69;100.00;65267.59;5071426;28;20196;-65
2023/06/15 09:30:02;;;;;;;11.15;10.02;;;;;;;21.65;100.00;65263.16;5071351;28;20650;-59
2023/06/15 09:32:29;;;;;;;13.65;10.88;;;;;;;21.72;100.00;65270.91;5070918;28;20200;-60
2023/06/15 09:34:58;;;;;;;11.77;10.15;;;;;;;21.89;100.00;65286.63;5071061;28;20212;-58
2023/06/15 09:37:29;;;;;;;11.45;10.02;;;;;;;21.87;100.00;65283.88;5071557;28;20575;-58
2023/06/15 09:39:56;;;;;;;10.75;9.73;;;;;;;21.85;100.00;65284.78;5070797;28;20274;-59
2023/06/15 09:42:28;;;;;;;15.18;11.90;;;;;;;21.29;100.00;65222.81;5071018;28;20234;-61
2023/06/15 09:44:57;;;;;;;15.57;12.27;;;;;;;21.27;100.00;65221.13;5071087;28;20212;-60
2023/06/15 09:47:28;;;;;;;14.40;12.82;;;;;;;21.18;100.00;65211.19;5070744;28;20204;-59
2023/06/15 09:49:53;;;;;;;20.45;12.48;;;;;;;21.15;100.00;65207.34;5071081;28;20224;-59
2023/06/15 09:52:20;;;;;;;18.67;14.70;;;;;;;21.07;100.00;65199.03;5070158;28;20250;-59
2023/06/15 09:54:47;;;;;;;16.88;13.52;;;;;;;20.88;100.00;65178.56;5070406;28;20278;-59
2023/06/15 09:57:13;;;;;;;18.95;15.90;;;;;;;20.71;100.00;65159.75;5070787;28;20221;-59
2023/06/15 09:59:38;;;;;;;16.83;13.93;;;;;;;20.82;100.00;65171.38;5070947;28;20288;-60
2023/06/15 10:02:08;;;;;;;19.83;14.10;;;;;;;20.81;100.00;65170.25;5070634;28;20300;-58
2023/06/15 10:04:36;;;;;;;18.67;15.38;;;;;;;20.44;100.00;65131.94;5070578;28;20204;-59
2023/06/15 10:07:03;;;;;;;19.00;15.50;;;;;;;20.48;100.00;65133.81;5070492;28;20693;-59
2023/06/15 10:09:37;;;;;;;22.48;16.88;;;;;;;20.66;100.00;65153.69;5070913;28;20228;-58
2023/06/15 10:12:10;;;;;;;26.65;20.00;;;;;;;20.61;100.00;65148.16;5070589;28;20641;-60
2023/06/15 10:14:45;;;;;;;23.80;17.42;;;;;;;20.59;100.00;65146.50;5070711;28;20212;-58
2023/06/15 10:17:13;;;;;;;24.23;17.38;;;;;;;20.51;100.00;65137.09;5070696;28;20208;-59
2023/06/15 10:19:43;;;;;;;24.83;17.27;;;;;;;20.55;100.00;65144.09;5070534;28;20216;-61
2023/06/15 10:22:16;;;;;;;22.48;16.20;;;;;;;20.16;100.00;65100.97;5070376;28;20204;-61
2023/06/15 10:24:44;;;;;;;21.35;16.63;;;;;;;20.00;100.00;65078.72;5070317;28;20235;-61
2023/06/15 10:27:10;;;;;;;20.70;17.33;;;;;;;19.67;100.00;65042.28;5071214;28;20219;-60
2023/06/15 10:29:58;;;;;;;25.90;17.65;;;;;;;19.23;100.00;64997.34;5055814;28;20224;-61
2023/06/15 10:32:30;;;;;;;24.20;18.38;;;;;;;19.01;100.00;64975.63;5073257;28;20213;-60
2023/06/15 10:35:04;;;;;;;25.40;18.65;;;;;;;18.85;100.00;64959.97;5073003;28;20223;-62
2023/06/15 10:37:58;;;;;;;23.20;18.30;;;;;;;18.78;100.00;64949.69;5073687;28;20284;-62
2023/06/15 10:40:34;;;;;;;29.83;21.30;;;;;;;18.66;100.00;64937.00;5035698;28;20224;-58
2023/06/15 10:43:02;;;;;;;31.00;22.10;;;;;;;18.90;100.00;64963.50;5073493;28;20203;-57
2023/06/15 10:45:31;;;;;;;26.48;19.75;;;;;;;18.71;100.00;64942.53;5073866;28;20239;-58
2023/06/15 10:47:59;;;;;;;30.02;20.05;;;;;;;18.50;100.00;64916.25;5073544;28;20219;-58
2023/06/15 10:50:26;;;;;;;32.20;22.30;;;;;;;18.45;100.00;64911.28;5073699;28;20283;-56
2023/06/15 10:52:51;;;;;;;28.88;19.60;;;;;;;18.69;100.00;64937.75;5073501;28;20201;-56
2023/06/15 10:55:22;;;;;;;27.15;20.45;;;;;;;18.71;100.00;64942.53;5073754;28;20209;-61
2023/06/15 10:57:48;;;;;;;28.35;18.73;;;;;;;18.73;100.00;64941.63;5073590;28;20216;-61
2023/06/15 11:00:26;;;;;;;22.02;16.85;;;;;;;18.71;100.00;64939.97;5073410;28;20283;-59
2023/06/15 11:02:59;;;;;;;48.65;28.52;;;;;;;18.76;100.00;64944.94;5055455;28;20204;-57
2023/06/15 11:05:25;;;;;;;26.48;19.17;;;;;;;19.13;100.00;64985.75;5073482;28;20201;-58
2023/06/15 11:07:54;;;;;;;23.88;19.30;;;;;;;19.17;100.00;64992.72;5073517;28;20189;-58
2023/06/15 11:10:27;;;;;;;25.80;17.75;;;;;;;19.35;100.00;65007.53;5073532;28;20197;-58
2023/06/15 11:13:04;;;;;;;22.33;16.75;;;;;;;19.65;100.00;65045.19;5073148;28;20208;-58
2023/06/15 11:15:34;;;;;;;19.90;14.88;;;;;;;19.85;100.00;65064.72;5072677;28;20267;-57
2023/06/15 11:18:11;;;;;;;19.95;14.23;;;;;;;19.99;100.00;65080.75;5072819;28;20224;-60